sensor_id;sensor_type;location;lat;lon;timestamp;pressure;altitude;pressure_sealevel;temperature;humidity
73297;BME280;61524;50.938;11.396;2024-03-07T00:00:54;99893.91;;;4.22;90.69
73297;BME280;61524;50.938;11.396;2024-03-07T00:03:21;99885.25;;;4.14;90.64
73297;BME280;61524;50.938;11.396;2024-03-07T00:05:49;99903.03;;;4.05;90.73
73297;BME280;61524;50.938;11.396;2024-03-07T00:08:15;99895.19;;;4.12;90.99
73297;BME280;61524;50.938;11.396;2024-03-07T00:10:40;99903.94;;;4.12;91.04
73297;BME280;61524;50.938;11.396;2024-03-07T00:13:06;99885.91;;;4.01;90.73
73297;BME280;61524;50.938;11.396;2024-03-07T00:15:33;99895.66;;;4.01;91.00
73297;BME280;61524;50.938;11.396;2024-03-07T00:17:58;99901.50;;;4.11;90.88
73297;BME280;61524;50.938;11.396;2024-03-07T00:20:25;99900.13;;;4.15;90.37
73297;BME280;61524;50.938;11.396;2024-03-07T00:22:51;99904.03;;;4.19;90.56
73297;BME280;61524;50.938;11.396;2024-03-07T00:25:17;99893.28;;;4.06;90.59
73297;BME280;61524;50.938;11.396;2024-03-07T00:27:45;99886.72;;;4.16;91.00
73297;BME280;61524;50.938;11.396;2024-03-07T00:30:10;99890.38;;;4.15;90.32
73297;BME280;61524;50.938;11.396;2024-03-07T00:32:38;99889.09;;;4.11;90.00
73297;BME280;61524;50.938;11.396;2024-03-07T00:35:08;99896.81;;;4.13;89.87
73297;BME280;61524;50.938;11.396;2024-03-07T00:37:36;99891.81;;;4.18;90.27
73297;BME280;61524;50.938;11.396;2024-03-07T00:40:02;99893.63;;;4.17;90.38
73297;BME280;61524;50.938;11.396;2024-03-07T00:42:28;99879.59;;;4.17;90.05
73297;BME280;61524;50.938;11.396;2024-03-07T00:44:54;99875.66;;;4.28;90.72
73297;BME280;61524;50.938;11.396;2024-03-07T00:47:19;99877.50;;;4.27;89.78
73297;BME280;61524;50.938;11.396;2024-03-07T00:49:45;99891.59;;;4.34;89.37
73297;BME280;61524;50.938;11.396;2024-03-07T00:52:14;99872.75;;;4.08;90.50
73297;BME280;61524;50.938;11.396;2024-03-07T00:54:40;99876.22;;;4.08;91.00
73297;BME280;61524;50.938;11.396;2024-03-07T00:57:06;99870.28;;;4.21;90.37
73297;BME280;61524;50.938;11.396;2024-03-07T00:59:33;99855.00;;;4.02;90.55
73297;BME280;61524;50.938;11.396;2024-03-07T01:01:58;99864.09;;;4.14;90.25
73297;BME280;61524;50.938;11.396;2024-03-07T01:04:24;99862.63;;;4.26;89.88
73297;BME280;61524;50.938;11.396;2024-03-07T01:06:56;99853.41;;;4.22;90.10
73297;BME280;61524;50.938;11.396;2024-03-07T01:09:21;99862.91;;;4.16;89.19
73297;BME280;61524;50.938;11.396;2024-03-07T01:11:48;99850.78;;;4.22;90.16
73297;BME280;61524;50.938;11.396;2024-03-07T01:14:14;99850.25;;;4.12;89.93
73297;BME280;61524;50.938;11.396;2024-03-07T01:16:40;99857.25;;;4.19;90.26
73297;BME280;61524;50.938;11.396;2024-03-07T01:19:06;99841.13;;;4.14;89.83
73297;BME280;61524;50.938;11.396;2024-03-07T01:21:35;99857.63;;;4.16;90.30
73297;BME280;61524;50.938;11.396;2024-03-07T01:24:04;99845.41;;;4.15;90.28
73297;BME280;61524;50.938;11.396;2024-03-07T01:26:30;99834.72;;;4.09;90.60
73297;BME280;61524;50.938;11.396;2024-03-07T01:28:59;99850.56;;;4.24;90.45
73297;BME280;61524;50.938;11.396;2024-03-07T01:31:25;99845.69;;;4.20;89.52
73297;BME280;61524;50.938;11.396;2024-03-07T01:33:51;99832.88;;;4.24;89.34
73297;BME280;61524;50.938;11.396;2024-03-07T01:36:16;99841.81;;;4.23;89.40
73297;BME280;61524;50.938;11.396;2024-03-07T01:38:42;99849.88;;;4.15;89.75
73297;BME280;61524;50.938;11.396;2024-03-07T01:41:07;99840.75;;;4.17;89.82
73297;BME280;61524;50.938;11.396;2024-03-07T01:43:34;99842.22;;;4.20;90.40
73297;BME280;61524;50.938;11.396;2024-03-07T01:45:59;99836.00;;;4.13;89.81
73297;BME280;61524;50.938;11.396;2024-03-07T01:48:27;99840.94;;;4.16;89.92
73297;BME280;61524;50.938;11.396;2024-03-07T01:50:54;99841.00;;;4.22;89.42
73297;BME280;61524;50.938;11.396;2024-03-07T01:53:20;99843.03;;;4.20;89.54
73297;BME280;61524;50.938;11.396;2024-03-07T01:55:46;99834.09;;;4.21;89.70
73297;BME280;61524;50.938;11.396;2024-03-07T01:58:13;99839.84;;;4.25;89.59
73297;BME280;61524;50.938;11.396;2024-03-07T02:00:41;99827.72;;;4.16;90.43
73297;BME280;61524;50.938;11.396;2024-03-07T02:03:09;99826.78;;;4.09;91.75
73297;BME280;61524;50.938;11.396;2024-03-07T02:05:35;99820.53;;;4.10;91.53
73297;BME280;61524;50.938;11.396;2024-03-07T02:08:00;99826.34;;;4.20;91.16
73297;BME280;61524;50.938;11.396;2024-03-07T02:10:27;99820.88;;;4.21;90.58
73297;BME280;61524;50.938;11.396;2024-03-07T02:12:52;99821.91;;;4.06;90.82
73297;BME280;61524;50.938;11.396;2024-03-07T02:15:18;99821.16;;;3.97;91.36
73297;BME280;61524;50.938;11.396;2024-03-07T02:17:44;99820.16;;;3.98;91.54
73297;BME280;61524;50.938;11.396;2024-03-07T02:20:10;99816.41;;;4.07;92.04
73297;BME280;61524;50.938;11.396;2024-03-07T02:22:38;99829.63;;;4.07;91.49
73297;BME280;61524;50.938;11.396;2024-03-07T02:25:05;99816.25;;;3.94;91.98
73297;BME280;61524;50.938;11.396;2024-03-07T02:27:31;99815.13;;;4.03;91.31
73297;BME280;61524;50.938;11.396;2024-03-07T02:29:56;99803.31;;;3.99;91.75
73297;BME280;61524;50.938;11.396;2024-03-07T02:32:22;99817.50;;;3.98;91.58
73297;BME280;61524;50.938;11.396;2024-03-07T02:34:48;99824.34;;;4.07;91.77
73297;BME280;61524;50.938;11.396;2024-03-07T02:37:14;99817.06;;;4.09;92.33
73297;BME280;61524;50.938;11.396;2024-03-07T02:39:39;99818.88;;;4.09;92.21
73297;BME280;61524;50.938;11.396;2024-03-07T02:42:05;99821.63;;;4.01;91.87
73297;BME280;61524;50.938;11.396;2024-03-07T02:44:31;99815.25;;;4.10;92.01
73297;BME280;61524;50.938;11.396;2024-03-07T02:46:57;99817.63;;;4.05;92.30
73297;BME280;61524;50.938;11.396;2024-03-07T02:49:23;99816.00;;;4.04;91.55
73297;BME280;61524;50.938;11.396;2024-03-07T02:51:48;99812.59;;;4.10;91.69
73297;BME280;61524;50.938;11.396;2024-03-07T02:54:14;99813.16;;;4.05;91.63
73297;BME280;61524;50.938;11.396;2024-03-07T02:56:39;99813.84;;;4.14;91.90
73297;BME280;61524;50.938;11.396;2024-03-07T02:59:05;99807.47;;;4.08;91.55
73297;BME280;61524;50.938;11.396;2024-03-07T03:01:32;99810.22;;;4.15;91.05
73297;BME280;61524;50.938;11.396;2024-03-07T03:03:57;99807.94;;;4.12;91.36
73297;BME280;61524;50.938;11.396;2024-03-07T03:06:23;99796.06;;;4.08;91.19
73297;BME280;61524;50.938;11.396;2024-03-07T03:08:48;99806.19;;;4.19;91.27
73297;BME280;61524;50.938;11.396;2024-03-07T03:11:14;99804.94;;;4.15;91.03
73297;BME280;61524;50.938;11.396;2024-03-07T03:13:43;99800.34;;;4.09;90.85
73297;BME280;61524;50.938;11.396;2024-03-07T03:16:09;99800.75;;;4.06;91.91
73297;BME280;61524;50.938;11.396;2024-03-07T03:18:35;99802.44;;;4.13;91.68
73297;BME280;61524;50.938;11.396;2024-03-07T03:21:01;99805.47;;;4.10;92.47
73297;BME280;61524;50.938;11.396;2024-03-07T03:23:28;99809.75;;;4.11;92.42
73297;BME280;61524;50.938;11.396;2024-03-07T03:25:53;99802.19;;;4.08;93.34
73297;BME280;61524;50.938;11.396;2024-03-07T03:28:21;99797.03;;;4.00;94.74
73297;BME280;61524;50.938;11.396;2024-03-07T03:30:47;99796.81;;;4.02;94.86
73297;BME280;61524;50.938;11.396;2024-03-07T03:33:13;99800.47;;;4.01;95.42
73297;BME280;61524;50.938;11.396;2024-03-07T03:35:38;99798.84;;;4.00;96.74
73297;BME280;61524;50.938;11.396;2024-03-07T03:38:04;99797.94;;;3.92;96.40
73297;BME280;61524;50.938;11.396;2024-03-07T03:40:30;99808.56;;;4.14;96.43
73297;BME280;61524;50.938;11.396;2024-03-07T03:42:56;99798.72;;;4.08;96.75
73297;BME280;61524;50.938;11.396;2024-03-07T03:45:22;99797.72;;;4.09;96.78
73297;BME280;61524;50.938;11.396;2024-03-07T03:47:47;99800.03;;;3.97;97.07
73297;BME280;61524;50.938;11.396;2024-03-07T03:50:13;99790.53;;;4.03;98.35
73297;BME280;61524;50.938;11.396;2024-03-07T03:52:39;99793.28;;;4.09;98.39
73297;BME280;61524;50.938;11.396;2024-03-07T03:55:06;99802.31;;;3.85;100.00
73297;BME280;61524;50.938;11.396;2024-03-07T03:57:33;99800.88;;;3.83;100.00
73297;BME280;61524;50.938;11.396;2024-03-07T04:00:03;99791.22;;;3.75;100.00
73297;BME280;61524;50.938;11.396;2024-03-07T04:02:40;99801.44;;;3.78;100.00
73297;BME280;61524;50.938;11.396;2024-03-07T04:05:07;99804.34;;;3.83;100.00
73297;BME280;61524;50.938;11.396;2024-03-07T04:07:34;99806.06;;;3.91;100.00
73297;BME280;61524;50.938;11.396;2024-03-07T04:10:00;99796.03;;;3.86;100.00
73297;BME280;61524;50.938;11.396;2024-03-07T04:12:28;99792.38;;;3.87;100.00
73297;BME280;61524;50.938;11.396;2024-03-07T04:14:54;99796.22;;;3.85;100.00
73297;BME280;61524;50.938;11.396;2024-03-07T04:17:22;99802.03;;;3.95;100.00
73297;BME280;61524;50.938;11.396;2024-03-07T04:19:48;99797.22;;;3.99;100.00
73297;BME280;61524;50.938;11.396;2024-03-07T04:22:13;99797.66;;;4.02;100.00
73297;BME280;61524;50.938;11.396;2024-03-07T04:24:39;99796.38;;;3.98;100.00
73297;BME280;61524;50.938;11.396;2024-03-07T04:27:06;99790.91;;;4.00;100.00
73297;BME280;61524;50.938;11.396;2024-03-07T04:29:32;99789.28;;;3.99;100.00
73297;BME280;61524;50.938;11.396;2024-03-07T04:31:59;99802.03;;;3.95;100.00
73297;BME280;61524;50.938;11.396;2024-03-07T04:34:24;99795.41;;;3.84;100.00
73297;BME280;61524;50.938;11.396;2024-03-07T04:36:50;99795.75;;;3.81;100.00
73297;BME280;61524;50.938;11.396;2024-03-07T04:39:16;99788.41;;;3.77;100.00
73297;BME280;61524;50.938;11.396;2024-03-07T04:42:05;99792.38;;;3.87;100.00
73297;BME280;61524;50.938;11.396;2024-03-07T04:44:32;99796.03;;;3.86;100.00
73297;BME280;61524;50.938;11.396;2024-03-07T04:46:59;99785.91;;;3.90;100.00
73297;BME280;61524;50.938;11.396;2024-03-07T04:49:27;99783.19;;;3.83;100.00
73297;BME280;61524;50.938;11.396;2024-03-07T04:51:54;99797.66;;;3.87;100.00
73297;BME280;61524;50.938;11.396;2024-03-07T04:54:21;99786.09;;;3.88;100.00
73297;BME280;61524;50.938;11.396;2024-03-07T04:56:47;99795.59;;;3.83;100.00
73297;BME280;61524;50.938;11.396;2024-03-07T04:59:13;99784.81;;;3.84;100.00
73297;BME280;61524;50.938;11.396;2024-03-07T05:01:40;99786.91;;;3.89;100.00
73297;BME280;61524;50.938;11.396;2024-03-07T05:04:06;99786.47;;;3.85;100.00
73297;BME280;61524;50.938;11.396;2024-03-07T05:06:32;99788.63;;;3.82;100.00
73297;BME280;61524;50.938;11.396;2024-03-07T05:09:05;99789.22;;;3.77;100.00
73297;BME280;61524;50.938;11.396;2024-03-07T05:11:32;99799.06;;;3.83;100.00
73297;BME280;61524;50.938;11.396;2024-03-07T05:13:59;99797.03;;;3.85;100.00
73297;BME280;61524;50.938;11.396;2024-03-07T05:16:28;99795.75;;;3.81;100.00
73297;BME280;61524;50.938;11.396;2024-03-07T05:18:55;99796.56;;;3.82;100.00
73297;BME280;61524;50.938;11.396;2024-03-07T05:21:24;99792.75;;;3.84;100.00
73297;BME280;61524;50.938;11.396;2024-03-07T05:24:01;99787.47;;;3.84;100.00
73297;BME280;61524;50.938;11.396;2024-03-07T05:26:28;99793.13;;;3.81;100.00
73297;BME280;61524;50.938;11.396;2024-03-07T05:29:02;99793.75;;;3.83;100.00
73297;BME280;61524;50.938;11.396;2024-03-07T05:31:31;99795.22;;;3.86;100.00
73297;BME280;61524;50.938;11.396;2024-03-07T05:34:02;99799.06;;;3.83;100.00
73297;BME280;61524;50.938;11.396;2024-03-07T05:36:36;99785.56;;;3.78;100.00
73297;BME280;61524;50.938;11.396;2024-03-07T05:39:09;99786.84;;;3.67;100.00
73297;BME280;61524;50.938;11.396;2024-03-07T05:41:39;99787.88;;;3.66;100.00
73297;BME280;61524;50.938;11.396;2024-03-07T05:44:05;99793.69;;;3.77;100.00
73297;BME280;61524;50.938;11.396;2024-03-07T05:46:37;99785.19;;;3.81;100.00
73297;BME280;61524;50.938;11.396;2024-03-07T05:49:09;99785.56;;;3.78;100.00
73297;BME280;61524;50.938;11.396;2024-03-07T05:51:35;99795.66;;;3.89;100.00
73297;BME280;61524;50.938;11.396;2024-03-07T05:54:01;99797.41;;;3.82;100.00
73297;BME280;61524;50.938;11.396;2024-03-07T05:56:34;99795.47;;;3.76;100.00
73297;BME280;61524;50.938;11.396;2024-03-07T05:59:02;99783.56;;;3.65;100.00
73297;BME280;61524;50.938;11.396;2024-03-07T06:01:38;99790.03;;;3.78;100.00
73297;BME280;61524;50.938;11.396;2024-03-07T06:04:05;99797.41;;;3.82;100.00
73297;BME280;61524;50.938;11.396;2024-03-07T06:06:34;99789.84;;;3.79;100.00
73297;BME280;61524;50.938;11.396;2024-03-07T06:09:07;99802.97;;;3.73;100.00
73297;BME280;61524;50.938;11.396;2024-03-07T06:11:37;99810.72;;;3.74;100.00
73297;BME280;61524;50.938;11.396;2024-03-07T06:14:03;99806.72;;;3.78;100.00
73297;BME280;61524;50.938;11.396;2024-03-07T06:16:35;99806.72;;;3.78;100.00
73297;BME280;61524;50.938;11.396;2024-03-07T06:19:02;99807.25;;;3.88;100.00
73297;BME280;61524;50.938;11.396;2024-03-07T06:21:28;99804.50;;;3.97;100.00
73297;BME280;61524;50.938;11.396;2024-03-07T06:23:56;99805.50;;;3.95;100.00
73297;BME280;61524;50.938;11.396;2024-03-07T06:26:35;99809.69;;;4.05;100.00
73297;BME280;61524;50.938;11.396;2024-03-07T06:29:17;99807.00;;;4.19;100.00
73297;BME280;61524;50.938;11.396;2024-03-07T06:31:43;99808.00;;;4.18;100.00
73297;BME280;61524;50.938;11.396;2024-03-07T06:34:11;99811.47;;;4.19;100.00
73297;BME280;61524;50.938;11.396;2024-03-07T06:36:38;99803.47;;;4.12;100.00
73297;BME280;61524;50.938;11.396;2024-03-07T06:39:04;99805.47;;;4.10;100.00
73297;BME280;61524;50.938;11.396;2024-03-07T06:41:32;99807.63;;;4.21;100.00
73297;BME280;61524;50.938;11.396;2024-03-07T06:43:57;99808.25;;;4.24;100.00
73297;BME280;61524;50.938;11.396;2024-03-07T06:46:23;99801.28;;;4.16;100.00
73297;BME280;61524;50.938;11.396;2024-03-07T06:48:49;99780.69;;;4.11;100.00
73297;BME280;61524;50.938;11.396;2024-03-07T06:51:14;99804.69;;;4.31;100.00
73297;BME280;61524;50.938;11.396;2024-03-07T06:53:43;99793.88;;;4.26;100.00
73297;BME280;61524;50.938;11.396;2024-03-07T06:56:08;99797.41;;;4.18;100.00
73297;BME280;61524;50.938;11.396;2024-03-07T06:58:34;99807.41;;;4.38;100.00
73297;BME280;61524;50.938;11.396;2024-03-07T07:00:59;99811.63;;;4.32;100.00
73297;BME280;61524;50.938;11.396;2024-03-07T07:03:26;99813.03;;;4.50;100.00
73297;BME280;61524;50.938;11.396;2024-03-07T07:05:54;99799.59;;;4.51;100.00
73297;BME280;61524;50.938;11.396;2024-03-07T07:08:20;99799.44;;;4.53;100.00
73297;BME280;61524;50.938;11.396;2024-03-07T07:10:45;99799.94;;;4.63;100.00
73297;BME280;61524;50.938;11.396;2024-03-07T07:13:11;99801.56;;;4.64;100.00
73297;BME280;61524;50.938;11.396;2024-03-07T07:15:38;99814.25;;;4.68;100.00
73297;BME280;61524;50.938;11.396;2024-03-07T07:18:04;99806.09;;;4.70;100.00
73297;BME280;61524;50.938;11.396;2024-03-07T07:20:31;99794.50;;;4.50;100.00
73297;BME280;61524;50.938;11.396;2024-03-07T07:22:59;99787.94;;;4.67;100.00
73297;BME280;61524;50.938;11.396;2024-03-07T07:25:27;99798.66;;;4.80;100.00
73297;BME280;61524;50.938;11.396;2024-03-07T07:27:52;99801.88;;;4.76;100.00
73297;BME280;61524;50.938;11.396;2024-03-07T07:30:20;99803.81;;;4.88;100.00
73297;BME280;61524;50.938;11.396;2024-03-07T07:32:50;99797.41;;;4.76;100.00
73297;BME280;61524;50.938;11.396;2024-03-07T07:35:16;99812.91;;;4.58;100.00
73297;BME280;61524;50.938;11.396;2024-03-07T07:37:44;99801.25;;;4.73;100.00
73297;BME280;61524;50.938;11.396;2024-03-07T07:40:12;99800.91;;;4.83;100.00
73297;BME280;61524;50.938;11.396;2024-03-07T07:42:40;99799.53;;;4.87;100.00
73297;BME280;61524;50.938;11.396;2024-03-07T07:45:08;99798.41;;;4.96;100.00
73297;BME280;61524;50.938;11.396;2024-03-07T07:47:42;99804.81;;;5.09;100.00
73297;BME280;61524;50.938;11.396;2024-03-07T07:50:09;99812.47;;;4.97;100.00
73297;BME280;61524;50.938;11.396;2024-03-07T07:55:14;99803.25;;;5.21;100.00
73297;BME280;61524;50.938;11.396;2024-03-07T07:57:47;99804.69;;;5.17;100.00
73297;BME280;61524;50.938;11.396;2024-03-07T08:00:15;99796.81;;;5.30;100.00
73297;BME280;61524;50.938;11.396;2024-03-07T08:02:54;99807.06;;;5.40;100.00
73297;BME280;61524;50.938;11.396;2024-03-07T08:05:21;99800.38;;;5.44;100.00
73297;BME280;61524;50.938;11.396;2024-03-07T08:07:52;99802.47;;;5.27;100.00
73297;BME280;61524;50.938;11.396;2024-03-07T08:10:21;99805.06;;;5.48;100.00
73297;BME280;61524;50.938;11.396;2024-03-07T08:12:48;99810.56;;;5.47;99.25
73297;BME280;61524;50.938;11.396;2024-03-07T08:15:15;99811.69;;;5.31;96.55
73297;BME280;61524;50.938;11.396;2024-03-07T08:17:44;99813.53;;;5.31;96.64
73297;BME280;61524;50.938;11.396;2024-03-07T08:20:15;99810.75;;;5.39;95.82
73297;BME280;61524;50.938;11.396;2024-03-07T08:22:41;99813.38;;;5.39;95.91
73297;BME280;61524;50.938;11.396;2024-03-07T08:25:12;99807.66;;;5.07;96.23
73297;BME280;61524;50.938;11.396;2024-03-07T08:27:38;99804.72;;;4.95;96.26
73297;BME280;61524;50.938;11.396;2024-03-07T08:30:09;99811.88;;;5.30;95.07
73297;BME280;61524;50.938;11.396;2024-03-07T08:32:49;99811.78;;;5.44;94.77
73297;BME280;61524;50.938;11.396;2024-03-07T08:35:15;99810.38;;;5.48;93.39
73297;BME280;61524;50.938;11.396;2024-03-07T08:37:43;99800.22;;;5.52;92.16
73297;BME280;61524;50.938;11.396;2024-03-07T08:40:09;99812.09;;;5.63;92.27
73297;BME280;61524;50.938;11.396;2024-03-07T08:42:36;99808.91;;;5.39;92.41
73297;BME280;61524;50.938;11.396;2024-03-07T08:45:03;99815.81;;;5.34;90.80
73297;BME280;61524;50.938;11.396;2024-03-07T08:47:34;99809.81;;;5.25;91.72
73297;BME280;61524;50.938;11.396;2024-03-07T08:50:00;99815.72;;;5.27;92.12
73297;BME280;61524;50.938;11.396;2024-03-07T08:52:26;99812.25;;;5.26;93.10
73297;BME280;61524;50.938;11.396;2024-03-07T08:54:53;99801.47;;;5.56;92.38
73297;BME280;61524;50.938;11.396;2024-03-07T08:57:19;99809.56;;;5.83;92.17
73297;BME280;61524;50.938;11.396;2024-03-07T08:59:45;99799.72;;;6.11;90.95
73297;BME280;61524;50.938;11.396;2024-03-07T09:02:11;99798.16;;;5.82;88.37
73297;BME280;61524;50.938;11.396;2024-03-07T09:04:37;99813.94;;;5.97;88.66
73297;BME280;61524;50.938;11.396;2024-03-07T09:07:06;99806.38;;;5.94;86.98
73297;BME280;61524;50.938;11.396;2024-03-07T09:09:35;99810.13;;;5.71;86.11
73297;BME280;61524;50.938;11.396;2024-03-07T09:12:01;99806.13;;;5.54;85.66
73297;BME280;61524;50.938;11.396;2024-03-07T09:14:30;99811.78;;;5.79;83.98
73297;BME280;61524;50.938;11.396;2024-03-07T09:16:55;99812.22;;;5.83;80.26
73297;BME280;61524;50.938;11.396;2024-03-07T09:19:21;99803.75;;;6.00;78.19
73297;BME280;61524;50.938;11.396;2024-03-07T09:21:51;99779.72;;;6.15;77.75
73297;BME280;61524;50.938;11.396;2024-03-07T09:24:18;99796.31;;;6.30;77.66
73297;BME280;61524;50.938;11.396;2024-03-07T09:26:49;99796.16;;;6.52;77.99
73297;BME280;61524;50.938;11.396;2024-03-07T09:29:18;99766.75;;;6.47;78.03
73297;BME280;61524;50.938;11.396;2024-03-07T09:31:45;99785.44;;;6.12;75.75
73297;BME280;61524;50.938;11.396;2024-03-07T09:34:11;99800.13;;;5.73;71.76
73297;BME280;61524;50.938;11.396;2024-03-07T09:36:38;99796.75;;;5.51;72.46
73297;BME280;61524;50.938;11.396;2024-03-07T09:39:04;99795.69;;;5.46;74.57
73297;BME280;61524;50.938;11.396;2024-03-07T09:41:29;99792.66;;;5.90;72.85
73297;BME280;61524;50.938;11.396;2024-03-07T09:43:56;99792.34;;;6.07;73.28
73297;BME280;61524;50.938;11.396;2024-03-07T09:46:23;99787.72;;;6.22;72.79
73297;BME280;61524;50.938;11.396;2024-03-07T09:48:49;99782.84;;;6.32;73.82
73297;BME280;61524;50.938;11.396;2024-03-07T09:51:20;99783.06;;;6.50;71.70
73297;BME280;61524;50.938;11.396;2024-03-07T09:53:49;99780.44;;;6.64;72.70
73297;BME280;61524;50.938;11.396;2024-03-07T09:56:17;99778.59;;;6.77;75.13
73297;BME280;61524;50.938;11.396;2024-03-07T09:58:49;99774.31;;;6.70;72.73
73297;BME280;61524;50.938;11.396;2024-03-07T10:01:15;99777.59;;;6.58;71.72
73297;BME280;61524;50.938;11.396;2024-03-07T10:03:43;99782.31;;;6.96;69.90
73297;BME280;61524;50.938;11.396;2024-03-07T10:06:10;99782.31;;;6.90;69.34
73297;BME280;61524;50.938;11.396;2024-03-07T10:08:36;99772.88;;;7.14;69.29
73297;BME280;61524;50.938;11.396;2024-03-07T10:11:02;99771.63;;;7.36;71.97
73297;BME280;61524;50.938;11.396;2024-03-07T10:13:28;99774.47;;;7.41;69.78
73297;BME280;61524;50.938;11.396;2024-03-07T10:15:54;99762.66;;;7.24;68.60
73297;BME280;61524;50.938;11.396;2024-03-07T10:18:25;99764.72;;;7.08;68.06
73297;BME280;61524;50.938;11.396;2024-03-07T10:20:54;99778.03;;;6.95;68.68
73297;BME280;61524;50.938;11.396;2024-03-07T10:23:20;99767.00;;;7.05;67.07
73297;BME280;61524;50.938;11.396;2024-03-07T10:25:46;99765.53;;;7.09;66.87
73297;BME280;61524;50.938;11.396;2024-03-07T10:28:12;99776.97;;;7.29;67.44
73297;BME280;61524;50.938;11.396;2024-03-07T10:30:41;99779.78;;;7.54;67.43
73297;BME280;61524;50.938;11.396;2024-03-07T10:33:09;99776.53;;;7.26;67.47
73297;BME280;61524;50.938;11.396;2024-03-07T10:35:38;99778.44;;;7.05;68.44
73297;BME280;61524;50.938;11.396;2024-03-07T10:38:03;99777.25;;;6.07;70.43
73297;BME280;61524;50.938;11.396;2024-03-07T10:40:33;99778.41;;;6.66;70.36
73297;BME280;61524;50.938;11.396;2024-03-07T10:43:09;99782.03;;;6.31;69.73
73297;BME280;61524;50.938;11.396;2024-03-07T10:45:39;99785.50;;;6.32;71.54
73297;BME280;61524;50.938;11.396;2024-03-07T10:48:11;99789.75;;;6.26;69.16
73297;BME280;61524;50.938;11.396;2024-03-07T11:01:49;99773.47;;;6.43;68.19
73297;BME280;61524;50.938;11.396;2024-03-07T11:04:17;99773.25;;;6.51;68.28
73297;BME280;61524;50.938;11.396;2024-03-07T11:06:43;99783.44;;;6.21;67.69
73297;BME280;61524;50.938;11.396;2024-03-07T11:09:10;99780.69;;;5.94;69.77
73297;BME280;61524;50.938;11.396;2024-03-07T11:11:39;99789.41;;;5.88;67.27
73297;BME280;61524;50.938;11.396;2024-03-07T11:14:10;99790.19;;;5.82;67.80
73297;BME280;61524;50.938;11.396;2024-03-07T11:16:40;99781.81;;;5.85;68.44
73297;BME280;61524;50.938;11.396;2024-03-07T11:21:44;99772.44;;;5.83;67.39
73297;BME280;61524;50.938;11.396;2024-03-07T11:24:22;99766.72;;;6.34;68.64
73297;BME280;61524;50.938;11.396;2024-03-07T11:26:48;99774.94;;;6.58;68.47
73297;BME280;61524;50.938;11.396;2024-03-07T11:32:01;99770.44;;;6.92;66.42
73297;BME280;61524;50.938;11.396;2024-03-07T11:34:29;99779.44;;;6.84;65.98
73297;BME280;61524;50.938;11.396;2024-03-07T11:36:55;99768.34;;;6.35;65.49
73297;BME280;61524;50.938;11.396;2024-03-07T11:39:41;99766.69;;;6.20;67.26
73297;BME280;61524;50.938;11.396;2024-03-07T11:42:08;99768.31;;;6.21;65.59
73297;BME280;61524;50.938;11.396;2024-03-07T11:44:33;99760.59;;;6.40;66.60
73297;BME280;61524;50.938;11.396;2024-03-07T11:47:05;99766.06;;;6.18;66.22
73297;BME280;61524;50.938;11.396;2024-03-07T11:49:37;99773.75;;;5.93;67.66
73297;BME280;61524;50.938;11.396;2024-03-07T11:52:06;99758.28;;;6.10;67.47
73297;BME280;61524;50.938;11.396;2024-03-07T11:54:41;99759.09;;;6.11;66.08
73297;BME280;61524;50.938;11.396;2024-03-07T11:57:17;99740.16;;;6.14;66.76
73297;BME280;61524;50.938;11.396;2024-03-07T11:59:45;99742.97;;;6.12;66.98
73297;BME280;61524;50.938;11.396;2024-03-07T12:02:14;99747.88;;;6.09;67.56
73297;BME280;61524;50.938;11.396;2024-03-07T12:04:44;99753.00;;;5.69;67.70
73297;BME280;61524;50.938;11.396;2024-03-07T12:07:09;99745.94;;;5.48;66.75
73297;BME280;61524;50.938;11.396;2024-03-07T12:09:43;99734.50;;;5.82;66.82
73297;BME280;61524;50.938;11.396;2024-03-07T12:12:11;99729.06;;;5.97;66.43
73297;BME280;61524;50.938;11.396;2024-03-07T12:14:37;99738.69;;;6.04;66.48
73297;BME280;61524;50.938;11.396;2024-03-07T12:17:04;99728.03;;;5.91;66.87
73297;BME280;61524;50.938;11.396;2024-03-07T12:19:33;99739.97;;;5.80;67.12
73297;BME280;61524;50.938;11.396;2024-03-07T12:22:02;99741.34;;;6.04;67.50
73297;BME280;61524;50.938;11.396;2024-03-07T12:24:28;99721.72;;;5.92;66.23
73297;BME280;61524;50.938;11.396;2024-03-07T12:27:11;99725.78;;;5.95;66.33
73297;BME280;61524;50.938;11.396;2024-03-07T12:29:40;99724.22;;;6.14;66.48
73297;BME280;61524;50.938;11.396;2024-03-07T12:32:08;99735.88;;;6.19;66.91
73297;BME280;61524;50.938;11.396;2024-03-07T12:34:36;99733.97;;;6.00;66.36
73297;BME280;61524;50.938;11.396;2024-03-07T12:37:05;99724.84;;;5.68;66.68
73297;BME280;61524;50.938;11.396;2024-03-07T12:39:32;99727.03;;;5.99;67.75
73297;BME280;61524;50.938;11.396;2024-03-07T12:42:03;99733.16;;;6.06;66.88
73297;BME280;61524;50.938;11.396;2024-03-07T12:44:42;99731.31;;;6.00;66.81
73297;BME280;61524;50.938;11.396;2024-03-07T12:47:10;99721.53;;;5.59;67.16
73297;BME280;61524;50.938;11.396;2024-03-07T12:49:36;99734.91;;;5.86;66.95
73297;BME280;61524;50.938;11.396;2024-03-07T12:52:01;99722.56;;;6.06;66.97
73297;BME280;61524;50.938;11.396;2024-03-07T12:54:27;99728.19;;;5.83;67.25
73297;BME280;61524;50.938;11.396;2024-03-07T12:56:52;99715.41;;;5.93;66.26
73297;BME280;61524;50.938;11.396;2024-03-07T12:59:18;99733.31;;;5.91;66.67
73297;BME280;61524;50.938;11.396;2024-03-07T13:01:46;99736.84;;;6.12;66.54
73297;BME280;61524;50.938;11.396;2024-03-07T13:04:13;99721.16;;;6.17;66.16
73297;BME280;61524;50.938;11.396;2024-03-07T13:06:39;99723.59;;;6.18;65.92
73297;BME280;61524;50.938;11.396;2024-03-07T13:09:09;99723.19;;;6.08;65.45
73297;BME280;61524;50.938;11.396;2024-03-07T13:11:38;99718.28;;;6.12;66.26
73297;BME280;61524;50.938;11.396;2024-03-07T13:14:06;99725.44;;;6.11;65.58
73297;BME280;61524;50.938;11.396;2024-03-07T13:16:33;99722.28;;;5.88;65.75
73297;BME280;61524;50.938;11.396;2024-03-07T13:18:58;99708.28;;;6.00;65.89